메인 페이지
METAR-TAF:

METAR-TAF

공항 :

Gulfport, 미시시피, 미국

위도: 30-24-43N, 경도: 089-04-51W, 고도: 8m

현재 날씨관측

예보는 16분 전, 01:53시(UTC)에 발표되었습니다.
남남동4kt
온도 27°C
습도 74%
기압 1018 hPa
시정: 16.1km
맑음

METAR: KGPT 250153Z 16004KT 10SM CLR 27/22 A3006 RMK AO2 SLP179 T02670222

시각: 21:09 (02:09 UTC)

예보

예보는 2 시간 42분 전, 23:27시(UTC)에 발표되었습니다.
예보 대상 시간: 25일 00시부터 25일 24시까지 (UTC)
남남동7kt
시정: 10km
맑음
25일 1000시부터 (UTC)
여러 방향의 바람 3kt
시정: 10km
고도 25000ft 상공 구름 보통
25일 1100시부터 (UTC)
여러 방향의 바람 3kt
시정: 10km
고도 3500ft 상공 구름 보통
25일 1200시부터 (UTC)
여러 방향의 바람 3kt
시정: 10km
고도 20000ft 상공 구름 보통

TAF: KGPT 242327Z 2500/2524 16007KT P6SM SKC FM251000 VRB03KT P6SM SCT250 FM251100 VRB03KT P6SM SCT035 FM251200 VRB03KT P6SM SCT200

4,000개 이상의 공항 관측 자료 및 예보 (METAR 및 TAF 보고).

지도상에서 검색 가능한 기상관측소가 노란 점과 빨간 점으로 표시되어 있습니다.

기상관측소 명을 보려면 표시 위로 마우스를 이동하세요.

날씨 관측과 예보를 보려면 클릭하세요.

지도 변경 : 확대하려면 엑스 표시가 있는 녹색 버튼, 축소하려면 빼기 표시가 있는 녹색 버튼, 다음 페이지의 지도를 보려면 녹색 화살표를 클릭하세요.


METAR-TAF: